Photo de Laille
https://tgftp.nws.noaa.gov/data/observations/metar/stations/LFRN.TXT2019/08/18 15:30 LFRN 181530Z AUTO 25010KT 220V280 9999 FEW048 SCT056 BKN074 22/11 Q1012 TEMPO SHRA BKN020TCU
Rennes
nuageux
Metar : 2019/08/18 15:30 LFRN 181530Z AUTO 25010KT 220V280 9999 FEW048 SCT056 BKN074 22/11 Q1012 TEMPO SHRA BKN020TCU
Couverture nuageuse : Few Clouds 4800 ft Partly Cloudy 5600 ft Mostly Cloudy 7400 ft
Pression de 29.88 inHg (1012 hPa)
Humidité : 50%
Température : 72°F (22°C)
Vent de WSW at 12 mph (19 km/h)
Visibilité : 6 miles (10 km)
Nantes
nuageux
Metar : 2019/08/18 15:30 LFRS 181530Z AUTO 29012KT 260V330 9999 SCT035 BKN041 BKN049 22/12 Q1013 NOSIG
Couverture nuageuse : Partly Cloudy 3500 ft Mostly Cloudy 4100 ft Mostly Cloudy 4900 ft
Traduc : Partly cloudy 700 ft
Pression de 29.91 inHg (1013 hPa)
Humidité : 53%
Température : 72°F (22°C)
Point de rosée : 54°F (12°C)
Vent de WNW at 14 mph (22 km/h)
Visibilité : 6 miles (10 km)
Lannion
Ciel dégagé
Metar : 2019/08/18 15:30 LFRO 181530Z AUTO 27017KT CAVOK 19/12 Q1012
Couverture nuageuse :
Traduc : Partly cloudy 700 ft
Pression de 29.88 inHg (1012 hPa)
Humidité : 64%
Température : 66°F (19°C)
Point de rosée : 54°F (12°C)
Vent de W at 20 mph (31 km/h)
Visibilité : greater than 7 miles (10 km)
Dinard
nuageux
Metar : 2019/08/18 15:30 LFRD 181530Z AUTO 32012KT 9999 SCT049 BKN058 BKN070 19/12 Q1012 TEMPO SHRA BKN020TCU
Couverture nuageuse : Partly Cloudy 4900 ft Mostly Cloudy 5800 ft Mostly Cloudy 7000 ft
Traduc : Partly cloudy 700 ft
Pression de 29.88 inHg (1012 hPa)
Humidité : 64%
Température : 66°F (19°C)
Point de rosée : 54°F (12°C)
Vent de NW at 14 mph (22 km/h)
Visibilité : 6 miles (10 km)
Brest
couvert
Metar : 2019/08/18 15:30 LFRB 181530Z AUTO 27014KT 240V300 9999 BKN028 BKN037 OVC052 18/12 Q1013 NOSIG
Couverture nuageuse : Mostly Cloudy 2800 ft Mostly Cloudy 3700 ft Overcast 5200 ft
Traduc : Partly cloudy 700 ft
Pression de 29.91 inHg (1013 hPa)
Humidité : 68%
Température : 64°F (18°C)
Point de rosée : 54°F (12°C)
Vent de W at 16 mph (26 km/h)
Visibilité : 6 miles (10 km)
Quimper
quelques nuages
Metar : 2019/08/18 15:30 LFRQ 181530Z AUTO 27015KT 9999 FEW029 18/12 Q1014 NOSIG
Couverture nuageuse : Few Clouds 2900 ft
Traduc : Partly cloudy 700 ft
Pression de 29.94 inHg (1014 hPa)
Humidité : 68%
Température : 64°F (18°C)
Point de rosée : 54°F (12°C)
Vent de W at 17 mph (28 km/h)
Visibilité : 6 miles (10 km)
St Nazaire
quelques nuages
Metar : 2019/08/18 15:30 LFRZ 181530Z AUTO 27015KT 9999 FEW035 19/10 Q1013 NOSIG
Couverture nuageuse : Few Clouds 3500 ft
Traduc : Partly cloudy 700 ft
Pression de 29.91 inHg (1013 hPa)
Humidité : 56%
Température : 66°F (19°C)
Point de rosée : 50°F (10°C)
Vent de W at 17 mph (28 km/h)
Visibilité : 6 miles (10 km)
St Brieuc
nuageux
Metar : 2019/08/18 15:30 LFRT 181530Z AUTO 27012KT 9999 FEW044 BKN066 20/11 Q1012
Couverture nuageuse : Few Clouds 4400 ft Mostly Cloudy 6600 ft
Traduc : Partly cloudy 700 ft
Pression de 29.88 inHg (1012 hPa)
Humidité : 56%
Température : 68°F (20°C)
Point de rosée : 52°F (11°C)
Vent de W at 14 mph (22 km/h)
Visibilité : 6 miles (10 km)
Lorient
Ciel dégagé
Metar : 2019/08/18 15:30 LFRH 181530Z AUTO 26020KT CAVOK 19/13 Q1013 TEMPO 27015G25KT SHRA SCT020TCU
Couverture nuageuse :
Traduc : Partly cloudy 700 ft
Pression de 29.91 inHg (1013 hPa)
Humidité : 68%
Température : 66°F (19°C)
Point de rosée : 55°F (13°C)
Vent de W at 23 mph (37 km/h)
Visibilité : greater than 7 miles (10 km)
Vannes-Meucon
Ciel dégagé
Metar : 2019/08/18 15:30 LFRV 181530Z AUTO 25010KT 200V290 CAVOK 20/11 Q1013
Couverture nuageuse :
Traduc : Partly cloudy 700 ft
Pression de 29.91 inHg (1013 hPa)
Humidité : 56%
Température : 68°F (20°C)
Point de rosée : 52°F (11°C)
Vent de WSW at 12 mph (19 km/h)
Visibilité : greater than 7 miles (10 km)

 


   Weather Underground PWS IBRETAGN39      Weather Underground PWS IBRETAGN39Retour Météo-Laillé adhérent de Météo-Bretagne et d'Infoclimat. Données mises à jour en temps réel via Météolink Climatologie réalisée sous Wswin et GraphWeather.

Affichage prévisions météo de WeatherUnderground via script PHP de Saratoga.

Copyright 2012-2018